sensor_id;sensor_type;location;lat;lon;timestamp;P1;durP1;ratioP1;P2;durP2;ratioP2
43560;SDS011;32305;46.410;17.394;2022-09-03T00:00:06;1.95;;;0.80;;
43560;SDS011;32305;46.410;17.394;2022-09-03T00:02:44;1.10;;;0.93;;
43560;SDS011;32305;46.410;17.394;2022-09-03T00:11:10;1.10;;;1.00;;
43560;SDS011;32305;46.410;17.394;2022-09-03T00:13:53;0.70;;;0.70;;
43560;SDS011;32305;46.410;17.394;2022-09-03T00:16:45;0.80;;;0.60;;
43560;SDS011;32305;46.410;17.394;2022-09-03T00:19:27;0.73;;;0.73;;
43560;SDS011;32305;46.410;17.394;2022-09-03T00:22:00;0.90;;;0.90;;
43560;SDS011;32305;46.410;17.394;2022-09-03T00:24:35;0.82;;;0.73;;
43560;SDS011;32305;46.410;17.394;2022-09-03T00:27:10;0.60;;;0.60;;
43560;SDS011;32305;46.410;17.394;2022-09-03T00:29:44;1.95;;;0.65;;
43560;SDS011;32305;46.410;17.394;2022-09-03T00:32:43;0.80;;;0.77;;
43560;SDS011;32305;46.410;17.394;2022-09-03T00:35:42;1.58;;;0.90;;
43560;SDS011;32305;46.410;17.394;2022-09-03T00:38:30;0.98;;;0.70;;
43560;SDS011;32305;46.410;17.394;2022-09-03T00:41:08;0.70;;;0.70;;
43560;SDS011;32305;46.410;17.394;2022-09-03T00:44:19;0.75;;;0.75;;
43560;SDS011;32305;46.410;17.394;2022-09-03T00:47:01;0.68;;;0.68;;
43560;SDS011;32305;46.410;17.394;2022-09-03T00:49:52;0.88;;;0.60;;
43560;SDS011;32305;46.410;17.394;2022-09-03T00:55:52;0.77;;;0.70;;
43560;SDS011;32305;46.410;17.394;2022-09-03T01:01:44;1.48;;;0.80;;
43560;SDS011;32305;46.410;17.394;2022-09-03T01:04:47;0.80;;;0.80;;
43560;SDS011;32305;46.410;17.394;2022-09-03T01:13:29;0.65;;;0.60;;
43560;SDS011;32305;46.410;17.394;2022-09-03T01:25:16;0.73;;;0.73;;
43560;SDS011;32305;46.410;17.394;2022-09-03T01:28:15;0.85;;;0.75;;
43560;SDS011;32305;46.410;17.394;2022-09-03T01:31:16;0.60;;;0.60;;
43560;SDS011;32305;46.410;17.394;2022-09-03T01:34:03;0.80;;;0.80;;
43560;SDS011;32305;46.410;17.394;2022-09-03T01:36:58;0.75;;;0.75;;
43560;SDS011;32305;46.410;17.394;2022-09-03T01:45:56;0.60;;;0.60;;
43560;SDS011;32305;46.410;17.394;2022-09-03T01:48:33;0.50;;;0.50;;
43560;SDS011;32305;46.410;17.394;2022-09-03T01:51:15;1.00;;;0.52;;
43560;SDS011;32305;46.410;17.394;2022-09-03T01:54:05;1.65;;;0.60;;
43560;SDS011;32305;46.410;17.394;2022-09-03T02:00:06;1.05;;;0.75;;
43560;SDS011;32305;46.410;17.394;2022-09-03T02:02:40;0.65;;;0.50;;
43560;SDS011;32305;46.410;17.394;2022-09-03T02:05:23;0.95;;;0.80;;
43560;SDS011;32305;46.410;17.394;2022-09-03T02:07:56;1.13;;;0.80;;
43560;SDS011;32305;46.410;17.394;2022-09-03T02:10:29;0.77;;;0.63;;
43560;SDS011;32305;46.410;17.394;2022-09-03T02:13:17;0.70;;;0.70;;
43560;SDS011;32305;46.410;17.394;2022-09-03T02:15:55;0.60;;;0.60;;
43560;SDS011;32305;46.410;17.394;2022-09-03T02:18:28;0.80;;;0.80;;
43560;SDS011;32305;46.410;17.394;2022-09-03T02:20:59;0.60;;;0.60;;
43560;SDS011;32305;46.410;17.394;2022-09-03T02:23:26;0.68;;;0.57;;
43560;SDS011;32305;46.410;17.394;2022-09-03T02:25:55;0.50;;;0.50;;
43560;SDS011;32305;46.410;17.394;2022-09-03T02:28:25;0.70;;;0.70;;
43560;SDS011;32305;46.410;17.394;2022-09-03T02:30:54;0.80;;;0.80;;
43560;SDS011;32305;46.410;17.394;2022-09-03T02:33:22;0.88;;;0.80;;
43560;SDS011;32305;46.410;17.394;2022-09-03T02:35:49;0.90;;;0.90;;
43560;SDS011;32305;46.410;17.394;2022-09-03T02:38:21;1.25;;;1.15;;
43560;SDS011;32305;46.410;17.394;2022-09-03T02:40:51;0.82;;;0.60;;
43560;SDS011;32305;46.410;17.394;2022-09-03T02:46:17;1.83;;;0.90;;
43560;SDS011;32305;46.410;17.394;2022-09-03T02:48:48;0.70;;;0.70;;
43560;SDS011;32305;46.410;17.394;2022-09-03T02:51:16;0.70;;;0.70;;
43560;SDS011;32305;46.410;17.394;2022-09-03T02:53:43;0.35;;;0.35;;
43560;SDS011;32305;46.410;17.394;2022-09-03T02:56:10;0.52;;;0.52;;
43560;SDS011;32305;46.410;17.394;2022-09-03T02:58:38;1.30;;;0.50;;
43560;SDS011;32305;46.410;17.394;2022-09-03T03:01:06;1.30;;;0.65;;
43560;SDS011;32305;46.410;17.394;2022-09-03T03:03:33;1.10;;;0.50;;
43560;SDS011;32305;46.410;17.394;2022-09-03T03:06:02;0.55;;;0.50;;
43560;SDS011;32305;46.410;17.394;2022-09-03T03:08:30;0.45;;;0.45;;
43560;SDS011;32305;46.410;17.394;2022-09-03T03:11:00;0.85;;;0.40;;
43560;SDS011;32305;46.410;17.394;2022-09-03T03:13:28;1.98;;;0.80;;
43560;SDS011;32305;46.410;17.394;2022-09-03T03:16:00;0.60;;;0.60;;
43560;SDS011;32305;46.410;17.394;2022-09-03T03:18:29;0.30;;;0.30;;
43560;SDS011;32305;46.410;17.394;2022-09-03T03:20:56;1.20;;;0.60;;
43560;SDS011;32305;46.410;17.394;2022-09-03T03:23:23;1.08;;;0.43;;
43560;SDS011;32305;46.410;17.394;2022-09-03T03:25:50;1.17;;;0.60;;
43560;SDS011;32305;46.410;17.394;2022-09-03T03:28:17;0.45;;;0.43;;
43560;SDS011;32305;46.410;17.394;2022-09-03T03:30:46;0.60;;;0.60;;
43560;SDS011;32305;46.410;17.394;2022-09-03T03:33:14;0.40;;;0.38;;
43560;SDS011;32305;46.410;17.394;2022-09-03T03:35:41;0.60;;;0.60;;
43560;SDS011;32305;46.410;17.394;2022-09-03T03:38:09;0.82;;;0.82;;
43560;SDS011;32305;46.410;17.394;2022-09-03T03:40:39;0.45;;;0.45;;
43560;SDS011;32305;46.410;17.394;2022-09-03T03:43:06;0.43;;;0.43;;
43560;SDS011;32305;46.410;17.394;2022-09-03T03:45:33;0.63;;;0.63;;
43560;SDS011;32305;46.410;17.394;2022-09-03T03:48:01;0.65;;;0.50;;
43560;SDS011;32305;46.410;17.394;2022-09-03T03:50:28;0.93;;;0.65;;
43560;SDS011;32305;46.410;17.394;2022-09-03T03:52:58;0.77;;;0.70;;
43560;SDS011;32305;46.410;17.394;2022-09-03T03:55:27;1.50;;;0.43;;
43560;SDS011;32305;46.410;17.394;2022-09-03T03:58:00;0.47;;;0.47;;
43560;SDS011;32305;46.410;17.394;2022-09-03T04:00:27;0.55;;;0.55;;
43560;SDS011;32305;46.410;17.394;2022-09-03T04:02:54;0.52;;;0.52;;
43560;SDS011;32305;46.410;17.394;2022-09-03T04:05:22;0.70;;;0.55;;
43560;SDS011;32305;46.410;17.394;2022-09-03T04:07:49;0.60;;;0.60;;
43560;SDS011;32305;46.410;17.394;2022-09-03T04:10:16;0.60;;;0.60;;
43560;SDS011;32305;46.410;17.394;2022-09-03T04:12:43;0.60;;;0.60;;
43560;SDS011;32305;46.410;17.394;2022-09-03T04:15:10;1.05;;;0.57;;
43560;SDS011;32305;46.410;17.394;2022-09-03T04:17:38;0.50;;;0.50;;
43560;SDS011;32305;46.410;17.394;2022-09-03T04:20:05;0.55;;;0.55;;
43560;SDS011;32305;46.410;17.394;2022-09-03T04:22:32;0.50;;;0.50;;
43560;SDS011;32305;46.410;17.394;2022-09-03T04:24:59;0.75;;;0.57;;
43560;SDS011;32305;46.410;17.394;2022-09-03T04:27:27;0.60;;;0.60;;
43560;SDS011;32305;46.410;17.394;2022-09-03T04:29:54;1.05;;;0.63;;
43560;SDS011;32305;46.410;17.394;2022-09-03T04:32:21;0.52;;;0.52;;
43560;SDS011;32305;46.410;17.394;2022-09-03T04:35:08;0.35;;;0.35;;
43560;SDS011;32305;46.410;17.394;2022-09-03T04:37:35;0.60;;;0.60;;
43560;SDS011;32305;46.410;17.394;2022-09-03T04:40:03;0.80;;;0.63;;
43560;SDS011;32305;46.410;17.394;2022-09-03T04:42:30;0.52;;;0.50;;
43560;SDS011;32305;46.410;17.394;2022-09-03T04:44:58;0.65;;;0.60;;
43560;SDS011;32305;46.410;17.394;2022-09-03T04:47:26;0.60;;;0.60;;
43560;SDS011;32305;46.410;17.394;2022-09-03T04:49:53;0.40;;;0.40;;
43560;SDS011;32305;46.410;17.394;2022-09-03T04:52:21;0.50;;;0.50;;
43560;SDS011;32305;46.410;17.394;2022-09-03T04:54:48;5.57;;;0.50;;
43560;SDS011;32305;46.410;17.394;2022-09-03T04:57:15;0.43;;;0.40;;
43560;SDS011;32305;46.410;17.394;2022-09-03T04:59:43;0.52;;;0.38;;
43560;SDS011;32305;46.410;17.394;2022-09-03T05:02:10;0.60;;;0.60;;
43560;SDS011;32305;46.410;17.394;2022-09-03T05:07:08;1.38;;;0.88;;
43560;SDS011;32305;46.410;17.394;2022-09-03T05:09:35;0.68;;;0.65;;
43560;SDS011;32305;46.410;17.394;2022-09-03T05:12:02;1.35;;;0.60;;
43560;SDS011;32305;46.410;17.394;2022-09-03T05:14:30;0.88;;;0.88;;
43560;SDS011;32305;46.410;17.394;2022-09-03T05:16:57;0.50;;;0.50;;
43560;SDS011;32305;46.410;17.394;2022-09-03T05:19:25;0.75;;;0.75;;
43560;SDS011;32305;46.410;17.394;2022-09-03T05:21:52;1.05;;;0.98;;
43560;SDS011;32305;46.410;17.394;2022-09-03T05:24:19;0.95;;;0.88;;
43560;SDS011;32305;46.410;17.394;2022-09-03T05:26:46;0.80;;;0.70;;
43560;SDS011;32305;46.410;17.394;2022-09-03T05:29:14;1.92;;;0.75;;
43560;SDS011;32305;46.410;17.394;2022-09-03T05:31:41;0.70;;;0.70;;
43560;SDS011;32305;46.410;17.394;2022-09-03T05:34:08;1.58;;;0.80;;
43560;SDS011;32305;46.410;17.394;2022-09-03T05:36:43;1.73;;;1.02;;
43560;SDS011;32305;46.410;17.394;2022-09-03T05:39:12;0.90;;;0.90;;
43560;SDS011;32305;46.410;17.394;2022-09-03T05:41:39;2.05;;;1.15;;
43560;SDS011;32305;46.410;17.394;2022-09-03T05:44:06;0.70;;;0.70;;
43560;SDS011;32305;46.410;17.394;2022-09-03T05:46:33;1.10;;;1.00;;
43560;SDS011;32305;46.410;17.394;2022-09-03T05:49:03;2.60;;;1.20;;
43560;SDS011;32305;46.410;17.394;2022-09-03T05:51:32;0.98;;;0.80;;
43560;SDS011;32305;46.410;17.394;2022-09-03T05:54:00;1.77;;;0.82;;
43560;SDS011;32305;46.410;17.394;2022-09-03T05:56:30;1.73;;;1.17;;
43560;SDS011;32305;46.410;17.394;2022-09-03T05:58:58;1.13;;;1.08;;
43560;SDS011;32305;46.410;17.394;2022-09-03T06:01:31;2.67;;;1.83;;
43560;SDS011;32305;46.410;17.394;2022-09-03T06:04:00;1.33;;;1.08;;
43560;SDS011;32305;46.410;17.394;2022-09-03T06:06:30;2.83;;;1.30;;
43560;SDS011;32305;46.410;17.394;2022-09-03T06:09:00;1.40;;;0.90;;
43560;SDS011;32305;46.410;17.394;2022-09-03T06:11:30;0.75;;;0.75;;
43560;SDS011;32305;46.410;17.394;2022-09-03T06:13:58;1.77;;;1.67;;
43560;SDS011;32305;46.410;17.394;2022-09-03T06:16:27;1.70;;;1.30;;
43560;SDS011;32305;46.410;17.394;2022-09-03T06:18:57;1.98;;;1.25;;
43560;SDS011;32305;46.410;17.394;2022-09-03T06:21:25;2.00;;;1.45;;
43560;SDS011;32305;46.410;17.394;2022-09-03T06:23:53;1.45;;;1.25;;
43560;SDS011;32305;46.410;17.394;2022-09-03T06:26:25;1.45;;;1.33;;
43560;SDS011;32305;46.410;17.394;2022-09-03T06:28:56;1.20;;;1.10;;
43560;SDS011;32305;46.410;17.394;2022-09-03T06:31:23;1.30;;;1.20;;
43560;SDS011;32305;46.410;17.394;2022-09-03T06:33:51;1.58;;;1.48;;
43560;SDS011;32305;46.410;17.394;2022-09-03T06:36:20;2.08;;;1.33;;
43560;SDS011;32305;46.410;17.394;2022-09-03T06:38:53;2.78;;;1.75;;
43560;SDS011;32305;46.410;17.394;2022-09-03T06:41:25;2.20;;;1.30;;
43560;SDS011;32305;46.410;17.394;2022-09-03T06:43:59;1.75;;;1.50;;
43560;SDS011;32305;46.410;17.394;2022-09-03T06:46:32;2.72;;;1.85;;
43560;SDS011;32305;46.410;17.394;2022-09-03T06:49:01;4.45;;;1.52;;
43560;SDS011;32305;46.410;17.394;2022-09-03T06:51:29;1.15;;;1.08;;
43560;SDS011;32305;46.410;17.394;2022-09-03T06:54:03;2.35;;;1.25;;
43560;SDS011;32305;46.410;17.394;2022-09-03T06:56:31;1.70;;;1.60;;
43560;SDS011;32305;46.410;17.394;2022-09-03T06:59:09;0.95;;;0.95;;
43560;SDS011;32305;46.410;17.394;2022-09-03T07:01:38;1.90;;;1.50;;
43560;SDS011;32305;46.410;17.394;2022-09-03T07:04:10;2.05;;;1.85;;
43560;SDS011;32305;46.410;17.394;2022-09-03T07:06:39;3.38;;;1.50;;
43560;SDS011;32305;46.410;17.394;2022-09-03T07:09:08;3.00;;;1.20;;
43560;SDS011;32305;46.410;17.394;2022-09-03T07:11:37;1.35;;;1.25;;
43560;SDS011;32305;46.410;17.394;2022-09-03T07:14:13;1.33;;;1.23;;
43560;SDS011;32305;46.410;17.394;2022-09-03T07:16:42;1.63;;;1.50;;
43560;SDS011;32305;46.410;17.394;2022-09-03T07:19:09;1.42;;;1.33;;
43560;SDS011;32305;46.410;17.394;2022-09-03T07:21:39;1.42;;;1.30;;
43560;SDS011;32305;46.410;17.394;2022-09-03T07:24:15;1.35;;;1.25;;
43560;SDS011;32305;46.410;17.394;2022-09-03T07:26:44;1.70;;;1.58;;
43560;SDS011;32305;46.410;17.394;2022-09-03T07:31:46;2.72;;;1.30;;
43560;SDS011;32305;46.410;17.394;2022-09-03T07:34:18;1.73;;;1.40;;
43560;SDS011;32305;46.410;17.394;2022-09-03T07:36:47;1.55;;;1.30;;
43560;SDS011;32305;46.410;17.394;2022-09-03T07:39:17;3.38;;;1.55;;
43560;SDS011;32305;46.410;17.394;2022-09-03T07:41:45;2.30;;;1.58;;
43560;SDS011;32305;46.410;17.394;2022-09-03T07:44:12;1.88;;;1.33;;
43560;SDS011;32305;46.410;17.394;2022-09-03T07:46:43;1.42;;;1.30;;
43560;SDS011;32305;46.410;17.394;2022-09-03T07:49:11;2.20;;;1.10;;
43560;SDS011;32305;46.410;17.394;2022-09-03T07:51:39;2.42;;;1.45;;
43560;SDS011;32305;46.410;17.394;2022-09-03T07:54:07;1.83;;;1.20;;
43560;SDS011;32305;46.410;17.394;2022-09-03T07:56:37;2.50;;;1.90;;
43560;SDS011;32305;46.410;17.394;2022-09-03T07:59:05;1.58;;;1.45;;
43560;SDS011;32305;46.410;17.394;2022-09-03T08:01:34;1.83;;;1.40;;
43560;SDS011;32305;46.410;17.394;2022-09-03T08:06:35;2.88;;;1.00;;
43560;SDS011;32305;46.410;17.394;2022-09-03T08:09:05;2.35;;;1.60;;
43560;SDS011;32305;46.410;17.394;2022-09-03T08:11:38;3.17;;;2.28;;
43560;SDS011;32305;46.410;17.394;2022-09-03T08:14:07;1.95;;;1.17;;
43560;SDS011;32305;46.410;17.394;2022-09-03T08:16:37;2.20;;;1.37;;
43560;SDS011;32305;46.410;17.394;2022-09-03T08:19:07;1.88;;;1.67;;
43560;SDS011;32305;46.410;17.394;2022-09-03T08:21:36;1.83;;;1.40;;
43560;SDS011;32305;46.410;17.394;2022-09-03T08:24:07;1.90;;;1.70;;
43560;SDS011;32305;46.410;17.394;2022-09-03T08:26:35;3.00;;;1.42;;
43560;SDS011;32305;46.410;17.394;2022-09-03T08:29:04;2.05;;;1.27;;
43560;SDS011;32305;46.410;17.394;2022-09-03T08:31:32;1.52;;;1.42;;
43560;SDS011;32305;46.410;17.394;2022-09-03T08:34:02;1.15;;;1.10;;
43560;SDS011;32305;46.410;17.394;2022-09-03T08:36:34;1.98;;;1.55;;
43560;SDS011;32305;46.410;17.394;2022-09-03T08:39:03;3.40;;;1.35;;
43560;SDS011;32305;46.410;17.394;2022-09-03T08:41:56;1.63;;;1.35;;
43560;SDS011;32305;46.410;17.394;2022-09-03T08:47:17;1.50;;;1.10;;
43560;SDS011;32305;46.410;17.394;2022-09-03T08:53:17;1.50;;;1.40;;
43560;SDS011;32305;46.410;17.394;2022-09-03T08:58:49;4.05;;;1.55;;
43560;SDS011;32305;46.410;17.394;2022-09-03T09:01:31;1.27;;;1.17;;
43560;SDS011;32305;46.410;17.394;2022-09-03T09:04:29;1.27;;;1.17;;
43560;SDS011;32305;46.410;17.394;2022-09-03T09:07:31;1.35;;;1.25;;
43560;SDS011;32305;46.410;17.394;2022-09-03T09:13:26;1.90;;;1.20;;
43560;SDS011;32305;46.410;17.394;2022-09-03T09:16:19;1.63;;;1.50;;
43560;SDS011;32305;46.410;17.394;2022-09-03T09:19:02;1.30;;;1.20;;
43560;SDS011;32305;46.410;17.394;2022-09-03T09:21:46;1.65;;;1.33;;
43560;SDS011;32305;46.410;17.394;2022-09-03T09:24:25;1.40;;;1.30;;
43560;SDS011;32305;46.410;17.394;2022-09-03T09:26:59;2.35;;;1.55;;
43560;SDS011;32305;46.410;17.394;2022-09-03T09:32:06;2.38;;;1.40;;
43560;SDS011;32305;46.410;17.394;2022-09-03T09:34:36;2.00;;;1.45;;
43560;SDS011;32305;46.410;17.394;2022-09-03T09:37:05;1.77;;;1.17;;
43560;SDS011;32305;46.410;17.394;2022-09-03T09:39:39;1.75;;;1.20;;
43560;SDS011;32305;46.410;17.394;2022-09-03T09:42:20;1.20;;;1.10;;
43560;SDS011;32305;46.410;17.394;2022-09-03T09:44:48;1.63;;;1.50;;
43560;SDS011;32305;46.410;17.394;2022-09-03T09:47:23;1.40;;;1.30;;
43560;SDS011;32305;46.410;17.394;2022-09-03T09:49:54;1.92;;;1.52;;
43560;SDS011;32305;46.410;17.394;2022-09-03T09:52:26;1.52;;;1.17;;
43560;SDS011;32305;46.410;17.394;2022-09-03T09:55:08;1.67;;;1.58;;
43560;SDS011;32305;46.410;17.394;2022-09-03T09:57:40;1.15;;;1.10;;
43560;SDS011;32305;46.410;17.394;2022-09-03T10:00:12;1.10;;;1.10;;
43560;SDS011;32305;46.410;17.394;2022-09-03T10:02:48;1.38;;;1.20;;
43560;SDS011;32305;46.410;17.394;2022-09-03T10:05:24;1.25;;;1.25;;
43560;SDS011;32305;46.410;17.394;2022-09-03T10:07:57;2.45;;;1.33;;
43560;SDS011;32305;46.410;17.394;2022-09-03T10:10:26;2.45;;;1.00;;
43560;SDS011;32305;46.410;17.394;2022-09-03T10:13:03;1.30;;;1.20;;
43560;SDS011;32305;46.410;17.394;2022-09-03T10:15:47;1.35;;;1.02;;
43560;SDS011;32305;46.410;17.394;2022-09-03T10:18:37;1.30;;;1.20;;
43560;SDS011;32305;46.410;17.394;2022-09-03T10:21:19;1.40;;;1.27;;
43560;SDS011;32305;46.410;17.394;2022-09-03T10:24:26;3.95;;;1.90;;
43560;SDS011;32305;46.410;17.394;2022-09-03T10:27:08;2.63;;;1.20;;
43560;SDS011;32305;46.410;17.394;2022-09-03T10:29:38;1.85;;;1.40;;
43560;SDS011;32305;46.410;17.394;2022-09-03T10:35:13;1.50;;;1.40;;
43560;SDS011;32305;46.410;17.394;2022-09-03T10:38:09;1.17;;;0.98;;
43560;SDS011;32305;46.410;17.394;2022-09-03T10:44:17;1.50;;;1.30;;
43560;SDS011;32305;46.410;17.394;2022-09-03T10:46:58;2.35;;;1.00;;
43560;SDS011;32305;46.410;17.394;2022-09-03T10:50:01;4.03;;;1.50;;
43560;SDS011;32305;46.410;17.394;2022-09-03T10:53:06;1.35;;;1.23;;
43560;SDS011;32305;46.410;17.394;2022-09-03T10:55:59;1.33;;;1.23;;
43560;SDS011;32305;46.410;17.394;2022-09-03T10:58:41;1.08;;;1.08;;
43560;SDS011;32305;46.410;17.394;2022-09-03T11:01:46;1.45;;;1.27;;
43560;SDS011;32305;46.410;17.394;2022-09-03T11:04:28;2.47;;;1.10;;
43560;SDS011;32305;46.410;17.394;2022-09-03T11:07:12;0.98;;;0.98;;
43560;SDS011;32305;46.410;17.394;2022-09-03T11:09:45;1.33;;;1.23;;
43560;SDS011;32305;46.410;17.394;2022-09-03T11:12:26;1.33;;;1.23;;
43560;SDS011;32305;46.410;17.394;2022-09-03T11:15:08;1.73;;;1.52;;
43560;SDS011;32305;46.410;17.394;2022-09-03T11:18:07;1.27;;;1.13;;
43560;SDS011;32305;46.410;17.394;2022-09-03T11:20:44;2.63;;;1.25;;
43560;SDS011;32305;46.410;17.394;2022-09-03T11:23:15;1.42;;;1.30;;
43560;SDS011;32305;46.410;17.394;2022-09-03T11:28:20;1.17;;;0.98;;
43560;SDS011;32305;46.410;17.394;2022-09-03T11:31:23;1.63;;;1.33;;
43560;SDS011;32305;46.410;17.394;2022-09-03T11:34:11;1.67;;;1.58;;
43560;SDS011;32305;46.410;17.394;2022-09-03T11:37:06;2.58;;;1.48;;
43560;SDS011;32305;46.410;17.394;2022-09-03T11:39:44;1.23;;;1.13;;
43560;SDS011;32305;46.410;17.394;2022-09-03T11:42:35;1.75;;;1.38;;
43560;SDS011;32305;46.410;17.394;2022-09-03T11:48:27;1.92;;;1.00;;
43560;SDS011;32305;46.410;17.394;2022-09-03T11:50:59;1.40;;;1.30;;
43560;SDS011;32305;46.410;17.394;2022-09-03T11:53:32;1.05;;;1.02;;
43560;SDS011;32305;46.410;17.394;2022-09-03T11:56:11;1.40;;;1.30;;
43560;SDS011;32305;46.410;17.394;2022-09-03T11:58:45;2.50;;;1.25;;
43560;SDS011;32305;46.410;17.394;2022-09-03T12:01:13;2.67;;;1.58;;
43560;SDS011;32305;46.410;17.394;2022-09-03T12:03:51;1.52;;;1.40;;
43560;SDS011;32305;46.410;17.394;2022-09-03T12:06:30;1.10;;;1.10;;
43560;SDS011;32305;46.410;17.394;2022-09-03T12:15:37;1.65;;;1.55;;
43560;SDS011;32305;46.410;17.394;2022-09-03T12:18:28;0.98;;;0.98;;
43560;SDS011;32305;46.410;17.394;2022-09-03T12:21:01;1.00;;;1.00;;
43560;SDS011;32305;46.410;17.394;2022-09-03T12:23:34;1.25;;;1.10;;
43560;SDS011;32305;46.410;17.394;2022-09-03T12:26:09;1.38;;;1.27;;
43560;SDS011;32305;46.410;17.394;2022-09-03T12:28:45;2.85;;;1.25;;
43560;SDS011;32305;46.410;17.394;2022-09-03T12:31:18;2.47;;;1.38;;
43560;SDS011;32305;46.410;17.394;2022-09-03T12:33:50;1.38;;;1.27;;
43560;SDS011;32305;46.410;17.394;2022-09-03T12:36:43;2.42;;;1.35;;
43560;SDS011;32305;46.410;17.394;2022-09-03T12:39:14;1.40;;;1.10;;
43560;SDS011;32305;46.410;17.394;2022-09-03T12:42:07;1.27;;;1.23;;
43560;SDS011;32305;46.410;17.394;2022-09-03T12:44:40;1.38;;;1.25;;
43560;SDS011;32305;46.410;17.394;2022-09-03T12:47:11;2.05;;;1.67;;
43560;SDS011;32305;46.410;17.394;2022-09-03T12:50:04;1.35;;;1.25;;
43560;SDS011;32305;46.410;17.394;2022-09-03T12:52:35;1.30;;;1.15;;
43560;SDS011;32305;46.410;17.394;2022-09-03T12:58:21;1.52;;;1.42;;
43560;SDS011;32305;46.410;17.394;2022-09-03T13:01:06;2.25;;;1.10;;
43560;SDS011;32305;46.410;17.394;2022-09-03T13:06:54;2.25;;;1.48;;
43560;SDS011;32305;46.410;17.394;2022-09-03T13:09:29;1.00;;;0.93;;
43560;SDS011;32305;46.410;17.394;2022-09-03T13:12:00;1.25;;;1.15;;
43560;SDS011;32305;46.410;17.394;2022-09-03T13:14:44;1.25;;;1.15;;
43560;SDS011;32305;46.410;17.394;2022-09-03T13:17:22;1.50;;;1.08;;
43560;SDS011;32305;46.410;17.394;2022-09-03T13:20:32;2.17;;;1.50;;
43560;SDS011;32305;46.410;17.394;2022-09-03T13:23:23;1.40;;;1.30;;
43560;SDS011;32305;46.410;17.394;2022-09-03T13:29:08;1.33;;;1.20;;
43560;SDS011;32305;46.410;17.394;2022-09-03T13:31:59;1.40;;;1.27;;
43560;SDS011;32305;46.410;17.394;2022-09-03T13:34:35;1.20;;;1.10;;
43560;SDS011;32305;46.410;17.394;2022-09-03T13:40:12;1.23;;;1.13;;
43560;SDS011;32305;46.410;17.394;2022-09-03T13:43:20;2.10;;;1.30;;
43560;SDS011;32305;46.410;17.394;2022-09-03T13:45:55;1.10;;;1.10;;
43560;SDS011;32305;46.410;17.394;2022-09-03T13:48:29;1.00;;;1.00;;
43560;SDS011;32305;46.410;17.394;2022-09-03T13:51:24;1.15;;;1.00;;
43560;SDS011;32305;46.410;17.394;2022-09-03T13:54:19;1.13;;;1.02;;
43560;SDS011;32305;46.410;17.394;2022-09-03T13:57:23;1.20;;;1.10;;
43560;SDS011;32305;46.410;17.394;2022-09-03T14:00:05;1.02;;;1.02;;
43560;SDS011;32305;46.410;17.394;2022-09-03T14:02:53;1.35;;;1.20;;
43560;SDS011;32305;46.410;17.394;2022-09-03T14:05:53;1.27;;;1.17;;
43560;SDS011;32305;46.410;17.394;2022-09-03T14:08:34;1.55;;;1.17;;
43560;SDS011;32305;46.410;17.394;2022-09-03T14:11:34;1.30;;;1.20;;
43560;SDS011;32305;46.410;17.394;2022-09-03T14:14:40;1.35;;;1.25;;
43560;SDS011;32305;46.410;17.394;2022-09-03T14:17:22;1.38;;;1.33;;
43560;SDS011;32305;46.410;17.394;2022-09-03T14:23:21;2.05;;;1.02;;
43560;SDS011;32305;46.410;17.394;2022-09-03T14:26:15;1.13;;;1.00;;
43560;SDS011;32305;46.410;17.394;2022-09-03T14:29:05;1.20;;;1.10;;
43560;SDS011;32305;46.410;17.394;2022-09-03T14:34:47;1.10;;;1.00;;
43560;SDS011;32305;46.410;17.394;2022-09-03T14:40:45;1.23;;;1.20;;
43560;SDS011;32305;46.410;17.394;2022-09-03T14:46:28;1.08;;;0.98;;
43560;SDS011;32305;46.410;17.394;2022-09-03T14:49:20;1.25;;;1.25;;
43560;SDS011;32305;46.410;17.394;2022-09-03T14:52:22;0.90;;;0.90;;
43560;SDS011;32305;46.410;17.394;2022-09-03T14:58:33;1.30;;;1.25;;
43560;SDS011;32305;46.410;17.394;2022-09-03T15:01:22;1.70;;;1.38;;
43560;SDS011;32305;46.410;17.394;2022-09-03T15:13:07;1.38;;;1.05;;
43560;SDS011;32305;46.410;17.394;2022-09-03T15:15:48;1.27;;;1.20;;
43560;SDS011;32305;46.410;17.394;2022-09-03T15:18:49;0.98;;;0.98;;
43560;SDS011;32305;46.410;17.394;2022-09-03T15:21:53;2.15;;;1.73;;
43560;SDS011;32305;46.410;17.394;2022-09-03T15:27:46;1.50;;;1.33;;
43560;SDS011;32305;46.410;17.394;2022-09-03T15:30:32;1.60;;;1.20;;
43560;SDS011;32305;46.410;17.394;2022-09-03T15:33:14;1.58;;;1.13;;
43560;SDS011;32305;46.410;17.394;2022-09-03T15:36:14;1.23;;;1.13;;
43560;SDS011;32305;46.410;17.394;2022-09-03T15:38:58;1.35;;;1.27;;
43560;SDS011;32305;46.410;17.394;2022-09-03T15:41:56;1.30;;;1.20;;
43560;SDS011;32305;46.410;17.394;2022-09-03T15:44:46;1.05;;;1.05;;
43560;SDS011;32305;46.410;17.394;2022-09-03T15:47:31;1.10;;;1.10;;
43560;SDS011;32305;46.410;17.394;2022-09-03T15:53:32;1.52;;;1.10;;
43560;SDS011;32305;46.410;17.394;2022-09-03T15:59:02;1.67;;;0.90;;
43560;SDS011;32305;46.410;17.394;2022-09-03T16:01:50;1.25;;;1.15;;
43560;SDS011;32305;46.410;17.394;2022-09-03T16:10:47;1.02;;;0.90;;
43560;SDS011;32305;46.410;17.394;2022-09-03T16:16:49;1.13;;;1.08;;
43560;SDS011;32305;46.410;17.394;2022-09-03T16:19:29;1.15;;;1.02;;
43560;SDS011;32305;46.410;17.394;2022-09-03T16:22:21;0.80;;;0.80;;
43560;SDS011;32305;46.410;17.394;2022-09-03T16:25:00;1.23;;;1.10;;
43560;SDS011;32305;46.410;17.394;2022-09-03T16:27:37;1.35;;;1.25;;
43560;SDS011;32305;46.410;17.394;2022-09-03T16:33:46;0.90;;;0.90;;
43560;SDS011;32305;46.410;17.394;2022-09-03T16:36:31;1.23;;;1.00;;
43560;SDS011;32305;46.410;17.394;2022-09-03T16:42:34;0.73;;;0.73;;
43560;SDS011;32305;46.410;17.394;2022-09-03T16:45:40;0.82;;;0.80;;
43560;SDS011;32305;46.410;17.394;2022-09-03T16:48:38;1.52;;;1.20;;
43560;SDS011;32305;46.410;17.394;2022-09-03T16:54:27;0.70;;;0.70;;
43560;SDS011;32305;46.410;17.394;2022-09-03T16:57:39;0.80;;;0.80;;
43560;SDS011;32305;46.410;17.394;2022-09-03T17:00:37;1.25;;;1.20;;
43560;SDS011;32305;46.410;17.394;2022-09-03T17:06:35;0.80;;;0.80;;
43560;SDS011;32305;46.410;17.394;2022-09-03T17:09:33;0.70;;;0.65;;
43560;SDS011;32305;46.410;17.394;2022-09-03T17:12:22;0.77;;;0.77;;
43560;SDS011;32305;46.410;17.394;2022-09-03T17:15:10;0.80;;;0.80;;
43560;SDS011;32305;46.410;17.394;2022-09-03T17:21:04;1.00;;;1.00;;
43560;SDS011;32305;46.410;17.394;2022-09-03T17:23:56;3.05;;;0.90;;
43560;SDS011;32305;46.410;17.394;2022-09-03T17:26:59;0.68;;;0.68;;
43560;SDS011;32305;46.410;17.394;2022-09-03T17:32:42;0.75;;;0.75;;
43560;SDS011;32305;46.410;17.394;2022-09-03T17:35:41;0.80;;;0.80;;
43560;SDS011;32305;46.410;17.394;2022-09-03T17:44:27;1.02;;;0.90;;
43560;SDS011;32305;46.410;17.394;2022-09-03T17:47:38;0.80;;;0.80;;
43560;SDS011;32305;46.410;17.394;2022-09-03T17:50:27;0.70;;;0.70;;
43560;SDS011;32305;46.410;17.394;2022-09-03T17:52:59;0.73;;;0.73;;
43560;SDS011;32305;46.410;17.394;2022-09-03T17:55:37;0.82;;;0.77;;
43560;SDS011;32305;46.410;17.394;2022-09-03T18:06:50;1.10;;;1.00;;
43560;SDS011;32305;46.410;17.394;2022-09-03T18:09:28;2.60;;;0.80;;
43560;SDS011;32305;46.410;17.394;2022-09-03T18:12:19;0.90;;;0.90;;
43560;SDS011;32305;46.410;17.394;2022-09-03T18:15:20;1.13;;;0.85;;
43560;SDS011;32305;46.410;17.394;2022-09-03T18:18:04;0.50;;;0.50;;
43560;SDS011;32305;46.410;17.394;2022-09-03T18:20:43;0.73;;;0.73;;
43560;SDS011;32305;46.410;17.394;2022-09-03T18:27:21;0.85;;;0.85;;
43560;SDS011;32305;46.410;17.394;2022-09-03T18:30:14;0.50;;;0.50;;